createdAt,value
2019-03-28T00:00:47.039Z,7.30
2019-03-28T00:05:50.098Z,7.30
2019-03-28T00:10:53.538Z,7.30
2019-03-28T00:15:56.752Z,7.20
2019-03-28T00:20:59.825Z,7.20
2019-03-28T00:26:03.473Z,7.20
2019-03-28T00:31:06.544Z,7.10
2019-03-28T00:36:09.894Z,7.10
2019-03-28T00:41:13.105Z,7.10
2019-03-28T00:46:16.627Z,7.10
2019-03-28T00:51:20.141Z,7.10
2019-03-28T00:56:23.658Z,7.20
2019-03-28T01:01:28.572Z,7.20
2019-03-28T01:06:32.221Z,7.30
2019-03-28T01:11:35.565Z,7.20
2019-03-28T01:16:39.401Z,7.30
2019-03-28T01:21:42.782Z,7.20
2019-03-28T01:26:56.663Z,7.20
2019-03-28T01:31:50.916Z,7.10
2019-03-28T01:36:54.255Z,7.10
2019-03-28T01:41:57.467Z,7.10
2019-03-28T01:47:00.677Z,7.00
2019-03-28T01:52:04.366Z,7.00
2019-03-28T01:57:11.157Z,6.90
2019-03-28T02:02:12.993Z,6.80
2019-03-28T02:07:16.285Z,6.70
2019-03-28T02:12:19.444Z,6.70
2019-03-28T02:17:22.704Z,6.70
2019-03-28T02:22:25.914Z,6.70
2019-03-28T02:27:29.123Z,6.70
2019-03-28T02:32:33.737Z,6.70
2019-03-28T02:37:37.081Z,6.70
2019-03-28T02:42:40.598Z,6.70
2019-03-28T02:47:43.808Z,6.60
2019-03-28T02:52:47.460Z,6.70
2019-03-28T02:57:50.727Z,6.70
2019-03-28T03:02:55.630Z,6.50
2019-03-28T03:07:59.111Z,6.50
2019-03-28T03:13:04.073Z,6.40
2019-03-28T03:18:07.761Z,6.30
2019-03-28T03:23:11.277Z,6.30
2019-03-28T03:28:15.448Z,6.30
2019-03-28T03:33:18.583Z,6.40
2019-03-28T03:38:22.055Z,6.40
2019-03-28T03:43:25.266Z,6.40
2019-03-28T03:48:28.784Z,6.50
2019-03-28T03:53:31.914Z,6.40
2019-03-28T03:58:35.204Z,6.40
2019-03-28T04:03:40.241Z,6.50
2019-03-28T04:08:43.355Z,6.40
2019-03-28T04:13:47.586Z,6.30
2019-03-28T04:18:50.813Z,6.30
2019-03-28T04:23:53.944Z,6.20
2019-03-28T04:28:57.231Z,6.30
2019-03-28T04:34:06.896Z,6.30
2019-03-28T04:39:05.807Z,6.40
2019-03-28T04:44:09.345Z,6.30
2019-03-28T04:49:15.608Z,6.40
2019-03-28T04:54:17.830Z,6.40
2019-03-28T04:59:21.102Z,6.50
2019-03-28T05:04:24.311Z,6.50
2019-03-28T05:09:29.471Z,6.50
2019-03-28T05:14:32.576Z,6.60
2019-03-28T05:19:35.915Z,6.60
2019-03-28T05:24:39.303Z,6.60
2019-03-28T05:29:42.822Z,6.60
2019-03-28T05:34:46.033Z,6.70
2019-03-28T05:39:49.551Z,6.80
2019-03-28T05:44:52.761Z,6.70
2019-03-28T05:49:57.091Z,6.80
2019-03-28T05:55:05.138Z,6.90
2019-03-28T06:00:07.113Z,6.90
2019-03-28T06:05:10.824Z,7.00
2019-03-28T06:10:16.393Z,7.10
2019-03-28T06:15:19.521Z,7.20
2019-03-28T06:20:22.911Z,7.30
2019-03-28T06:25:26.046Z,7.40
2019-03-28T06:30:29.122Z,7.40
2019-03-28T06:35:32.543Z,7.60
2019-03-28T06:40:35.572Z,7.60
2019-03-28T06:45:38.633Z,7.80
2019-03-28T06:50:41.867Z,7.90
2019-03-28T06:55:45.384Z,8.10
2019-03-28T07:00:48.596Z,8.10
2019-03-28T07:05:51.805Z,8.30
2019-03-28T07:10:57.868Z,8.40
2019-03-28T07:16:00.375Z,8.80
2019-03-28T07:21:03.594Z,9.00
2019-03-28T07:26:06.618Z,9.00
2019-03-28T07:31:10.008Z,8.80
2019-03-28T07:36:15.018Z,8.80
2019-03-28T07:41:18.249Z,9.10
2019-03-28T07:46:21.357Z,9.10
2019-03-28T08:07:29.371Z,9.50
2019-03-28T08:12:32.805Z,9.80
2019-03-28T08:17:36.015Z,9.90
2019-03-28T08:22:39.229Z,9.90
2019-03-28T08:27:44.230Z,9.90
2019-03-28T08:32:47.489Z,10.00
2019-03-28T08:37:50.699Z,10.10
2019-03-28T08:42:53.827Z,10.30
2019-03-28T08:47:57.119Z,10.60
2019-03-28T08:53:00.206Z,10.60
2019-03-28T08:58:04.155Z,10.50
2019-03-28T09:03:07.256Z,10.70
2019-03-28T09:08:10.578Z,10.80
2019-03-28T09:13:13.617Z,10.80
2019-03-28T09:18:17.819Z,11.00
2019-03-28T09:23:21.130Z,11.00
2019-03-28T09:28:25.364Z,11.20
2019-03-28T09:33:30.795Z,11.60
2019-03-28T09:38:33.833Z,11.80
2019-03-28T09:43:37.041Z,11.70
2019-03-28T09:48:40.251Z,11.80
2019-03-28T09:53:43.462Z,12.00
2019-03-28T09:58:46.558Z,12.10
2019-03-28T10:03:49.883Z,12.40
2019-03-28T10:08:54.810Z,12.50
2019-03-28T10:13:57.878Z,12.70
2019-03-28T10:19:00.941Z,12.70
2019-03-28T10:24:04.570Z,12.50
2019-03-28T10:29:07.700Z,12.70
2019-03-28T10:34:10.777Z,12.90
2019-03-28T10:39:14.201Z,12.90
2019-03-28T10:44:17.411Z,13.10
2019-03-28T10:49:20.492Z,12.80
2019-03-28T10:54:25.721Z,12.90
2019-03-28T10:59:30.430Z,13.00
2019-03-28T11:04:33.442Z,13.10
2019-03-28T11:09:36.517Z,13.10
2019-03-28T11:14:39.582Z,12.90
2019-03-28T11:19:44.569Z,12.60
2019-03-28T11:24:47.535Z,12.70
2019-03-28T11:29:50.923Z,12.90
2019-03-28T11:34:53.999Z,13.00
2019-03-28T11:39:57.149Z,13.30
2019-03-28T11:45:00.454Z,13.20
2019-03-28T11:50:04.629Z,13.40
2019-03-28T11:55:08.763Z,13.70
2019-03-28T12:00:13.319Z,14.00
2019-03-28T12:05:18.315Z,14.20
2019-03-28T12:10:21.400Z,13.90
2019-03-28T12:15:25.557Z,13.90
2019-03-28T12:20:28.563Z,13.80
2019-03-28T12:25:31.636Z,13.80
2019-03-28T12:30:36.608Z,13.90
2019-03-28T12:35:41.443Z,13.80
2019-03-28T12:40:44.657Z,14.00
2019-03-28T12:45:48.861Z,14.10
2019-03-28T12:50:58.681Z,14.00
2019-03-28T12:55:57.052Z,13.90
2019-03-28T13:01:00.262Z,14.00
2019-03-28T13:06:05.315Z,13.90
2019-03-28T13:11:08.305Z,13.90
2019-03-28T13:16:11.350Z,13.70
2019-03-28T13:21:14.563Z,13.30
2019-03-28T13:26:17.849Z,13.50
2019-03-28T13:31:20.938Z,13.20
2019-03-28T13:36:24.013Z,13.10
2019-03-28T13:41:27.097Z,12.90
2019-03-28T13:46:30.156Z,12.80
2019-03-28T13:51:33.224Z,12.80
2019-03-28T13:56:38.562Z,13.00
2019-03-28T14:01:41.208Z,13.30
2019-03-28T14:06:45.384Z,13.30
2019-03-28T14:11:48.586Z,13.50
2019-03-28T14:16:53.156Z,13.30
2019-03-28T14:21:56.851Z,13.40
2019-03-28T14:26:59.895Z,13.40
2019-03-28T14:32:02.987Z,13.20
2019-03-28T14:37:07.983Z,13.40
2019-03-28T14:42:10.976Z,13.60
2019-03-28T14:47:14.438Z,13.80
2019-03-28T14:52:17.495Z,13.80
2019-03-28T14:57:21.010Z,14.00
2019-03-28T15:02:24.106Z,13.80
2019-03-28T15:07:27.201Z,13.80
2019-03-28T15:12:30.491Z,13.50
2019-03-28T15:17:33.700Z,13.50
2019-03-28T15:22:36.701Z,13.40
2019-03-28T15:27:40.974Z,13.10
2019-03-28T15:32:45.857Z,12.90
2019-03-28T15:37:48.864Z,12.80
2019-03-28T15:42:51.980Z,12.70
2019-03-28T15:47:55.115Z,12.80
2019-03-28T15:52:58.323Z,12.80
2019-03-28T15:58:01.412Z,12.90
2019-03-28T16:03:04.714Z,12.90
2019-03-28T16:08:07.773Z,13.00
2019-03-28T16:13:12.394Z,12.90
2019-03-28T16:18:15.569Z,12.80
2019-03-28T16:23:18.813Z,12.70
2019-03-28T16:28:21.912Z,12.70
2019-03-28T16:33:25.237Z,12.70
2019-03-28T16:38:29.060Z,12.60
2019-03-28T16:43:32.120Z,12.50
2019-03-28T16:48:35.428Z,12.40
2019-03-28T16:53:38.500Z,12.30
2019-03-28T16:58:41.594Z,12.30
2019-03-28T17:03:44.630Z,12.10
2019-03-28T17:08:48.135Z,12.00
2019-03-28T17:13:52.339Z,12.00
2019-03-28T17:18:57.275Z,12.00
2019-03-28T17:24:00.410Z,11.80
2019-03-28T17:29:03.539Z,11.70
2019-03-28T17:34:06.648Z,11.60
2019-03-28T17:39:09.704Z,11.60
2019-03-28T17:44:14.433Z,11.70
2019-03-28T17:49:18.000Z,11.60
2019-03-28T17:54:21.064Z,11.50
2019-03-28T17:59:24.123Z,11.40
2019-03-28T18:04:27.228Z,11.30
2019-03-28T18:09:30.289Z,11.20
2019-03-28T18:14:34.447Z,11.20
2019-03-28T18:19:37.525Z,11.10
2019-03-28T18:24:41.191Z,11.00
2019-03-28T18:29:45.085Z,11.00
2019-03-28T18:34:54.453Z,10.90
2019-03-28T18:39:53.039Z,10.90
2019-03-28T18:44:56.188Z,10.80
2019-03-28T18:50:02.913Z,10.80
2019-03-28T18:55:05.288Z,10.70
2019-03-28T19:00:09.402Z,10.70
2019-03-28T19:05:19.769Z,10.70
2019-03-28T19:10:19.825Z,10.60
2019-03-28T19:15:23.718Z,10.60
2019-03-28T19:20:27.026Z,10.60
2019-03-28T19:25:30.094Z,10.60
2019-03-28T19:30:34.196Z,10.50
2019-03-28T19:35:39.945Z,10.50
2019-03-28T19:40:45.206Z,10.50
2019-03-28T19:45:48.191Z,10.50
2019-03-28T19:50:51.255Z,10.50
2019-03-28T19:55:54.936Z,10.50
2019-03-28T20:00:58.485Z,10.40
2019-03-28T20:06:01.611Z,10.30
2019-03-28T20:11:04.673Z,10.30
2019-03-28T20:16:07.831Z,10.30
2019-03-28T20:21:10.899Z,10.20
2019-03-28T20:26:14.279Z,10.20
2019-03-28T20:31:17.374Z,10.20
2019-03-28T20:36:36.762Z,10.20
2019-03-28T20:41:25.702Z,10.20
2019-03-28T20:46:29.077Z,10.10
2019-03-28T20:51:32.688Z,10.20
2019-03-28T20:56:35.949Z,10.10
2019-03-28T21:01:42.386Z,10.10
2019-03-28T21:06:45.929Z,10.10
2019-03-28T21:11:49.180Z,10.00
2019-03-28T21:16:52.194Z,10.00
2019-03-28T21:21:55.515Z,10.00
2019-03-28T21:26:58.590Z,10.00
2019-03-28T21:32:01.949Z,10.00
2019-03-28T21:37:06.544Z,10.00
2019-03-28T21:42:12.114Z,9.90
2019-03-28T21:47:14.841Z,9.90
2019-03-28T21:52:17.945Z,9.90
2019-03-28T21:57:21.014Z,9.90
2019-03-28T22:02:24.762Z,9.80
2019-03-28T22:07:28.076Z,9.80
2019-03-28T22:12:31.961Z,9.70
2019-03-28T22:17:35.305Z,9.70
2019-03-28T22:22:39.642Z,9.70
2019-03-28T22:27:42.662Z,9.70
2019-03-28T22:32:47.136Z,9.70
2019-03-28T22:37:50.979Z,9.70
2019-03-28T22:42:57.218Z,9.60
2019-03-28T22:48:10.587Z,9.60
2019-03-28T22:53:05.554Z,9.60
2019-03-28T22:58:09.080Z,9.60
2019-03-28T23:03:15.379Z,9.60
2019-03-28T23:08:19.949Z,9.50
2019-03-28T23:13:23.721Z,9.50
2019-03-28T23:18:28.161Z,9.50
2019-03-28T23:23:31.679Z,9.50
2019-03-28T23:28:34.719Z,9.60
2019-03-28T23:33:37.823Z,9.60
2019-03-28T23:38:40.892Z,9.60
2019-03-28T23:43:43.939Z,9.60
2019-03-28T23:48:47.864Z,9.70
2019-03-28T23:53:53.859Z,9.70
2019-03-28T23:58:56.844Z,9.60
